sensor_id;sensor_type;location;lat;lon;timestamp;temperature;humidity
29803;DHT22;16702;50.898;4.662;2023-07-13T00:02:24;22.10;99.90
29803;DHT22;16702;50.898;4.662;2023-07-13T00:04:55;22.10;99.90
29803;DHT22;16702;50.898;4.662;2023-07-13T00:07:30;22.00;99.90
29803;DHT22;16702;50.898;4.662;2023-07-13T00:10:01;22.00;99.90
29803;DHT22;16702;50.898;4.662;2023-07-13T00:12:35;21.80;99.90
29803;DHT22;16702;50.898;4.662;2023-07-13T00:15:13;21.80;99.90
29803;DHT22;16702;50.898;4.662;2023-07-13T00:17:44;21.80;99.90
29803;DHT22;16702;50.898;4.662;2023-07-13T00:20:15;21.80;99.90
29803;DHT22;16702;50.898;4.662;2023-07-13T00:22:49;21.70;99.90
29803;DHT22;16702;50.898;4.662;2023-07-13T00:25:21;21.70;99.90
29803;DHT22;16702;50.898;4.662;2023-07-13T00:27:56;21.70;99.90
29803;DHT22;16702;50.898;4.662;2023-07-13T00:30:26;21.70;99.90
29803;DHT22;16702;50.898;4.662;2023-07-13T00:32:58;21.70;99.90
29803;DHT22;16702;50.898;4.662;2023-07-13T00:35:44;21.60;99.90
29803;DHT22;16702;50.898;4.662;2023-07-13T00:38:17;21.60;99.90
29803;DHT22;16702;50.898;4.662;2023-07-13T00:40:48;21.60;99.90
29803;DHT22;16702;50.898;4.662;2023-07-13T00:43:21;21.60;99.90
29803;DHT22;16702;50.898;4.662;2023-07-13T00:46:12;21.60;99.90
29803;DHT22;16702;50.898;4.662;2023-07-13T00:48:45;21.50;99.90
29803;DHT22;16702;50.898;4.662;2023-07-13T00:51:20;21.40;99.90
29803;DHT22;16702;50.898;4.662;2023-07-13T00:53:57;21.50;99.90
29803;DHT22;16702;50.898;4.662;2023-07-13T00:56:29;21.40;99.90
29803;DHT22;16702;50.898;4.662;2023-07-13T00:59:00;21.40;99.90
29803;DHT22;16702;50.898;4.662;2023-07-13T01:01:32;21.40;99.90
29803;DHT22;16702;50.898;4.662;2023-07-13T01:04:04;21.30;99.90
29803;DHT22;16702;50.898;4.662;2023-07-13T01:06:36;21.30;99.90
29803;DHT22;16702;50.898;4.662;2023-07-13T01:09:10;21.30;99.90
29803;DHT22;16702;50.898;4.662;2023-07-13T01:11:41;21.30;99.90
29803;DHT22;16702;50.898;4.662;2023-07-13T01:14:12;21.20;99.90
29803;DHT22;16702;50.898;4.662;2023-07-13T01:16:46;21.20;99.90
29803;DHT22;16702;50.898;4.662;2023-07-13T01:19:25;21.20;99.90
29803;DHT22;16702;50.898;4.662;2023-07-13T01:22:09;21.20;99.90
29803;DHT22;16702;50.898;4.662;2023-07-13T01:24:42;21.20;99.90
29803;DHT22;16702;50.898;4.662;2023-07-13T01:27:17;21.10;99.90
29803;DHT22;16702;50.898;4.662;2023-07-13T01:29:47;21.10;99.90
29803;DHT22;16702;50.898;4.662;2023-07-13T01:32:23;21.10;99.90
29803;DHT22;16702;50.898;4.662;2023-07-13T01:34:55;21.00;99.90
29803;DHT22;16702;50.898;4.662;2023-07-13T01:37:28;21.00;99.90
29803;DHT22;16702;50.898;4.662;2023-07-13T01:40:03;21.00;99.90
29803;DHT22;16702;50.898;4.662;2023-07-13T01:42:36;21.00;99.90
29803;DHT22;16702;50.898;4.662;2023-07-13T01:45:07;21.00;99.90
29803;DHT22;16702;50.898;4.662;2023-07-13T01:47:38;21.00;99.90
29803;DHT22;16702;50.898;4.662;2023-07-13T01:50:09;20.90;99.90
29803;DHT22;16702;50.898;4.662;2023-07-13T01:52:43;20.90;99.90
29803;DHT22;16702;50.898;4.662;2023-07-13T01:55:14;20.90;99.90
29803;DHT22;16702;50.898;4.662;2023-07-13T01:57:44;20.80;99.90
29803;DHT22;16702;50.898;4.662;2023-07-13T02:00:18;20.80;99.90
29803;DHT22;16702;50.898;4.662;2023-07-13T02:02:49;20.80;99.90
29803;DHT22;16702;50.898;4.662;2023-07-13T02:05:19;20.80;99.90
29803;DHT22;16702;50.898;4.662;2023-07-13T02:07:53;20.70;99.90
29803;DHT22;16702;50.898;4.662;2023-07-13T02:10:25;20.70;99.90
29803;DHT22;16702;50.898;4.662;2023-07-13T02:12:56;20.70;99.90
29803;DHT22;16702;50.898;4.662;2023-07-13T02:15:26;20.60;99.90
29803;DHT22;16702;50.898;4.662;2023-07-13T02:17:57;20.50;99.90
29803;DHT22;16702;50.898;4.662;2023-07-13T02:20:28;20.60;99.90
29803;DHT22;16702;50.898;4.662;2023-07-13T02:23:01;20.60;99.90
29803;DHT22;16702;50.898;4.662;2023-07-13T02:25:35;20.50;99.90
29803;DHT22;16702;50.898;4.662;2023-07-13T02:28:08;20.40;99.90
29803;DHT22;16702;50.898;4.662;2023-07-13T02:30:39;20.40;99.90
29803;DHT22;16702;50.898;4.662;2023-07-13T02:33:09;20.40;99.90
29803;DHT22;16702;50.898;4.662;2023-07-13T02:35:40;20.40;99.90
29803;DHT22;16702;50.898;4.662;2023-07-13T02:38:14;20.30;99.90
29803;DHT22;16702;50.898;4.662;2023-07-13T02:40:44;20.30;99.90
29803;DHT22;16702;50.898;4.662;2023-07-13T02:43:16;20.40;99.90
29803;DHT22;16702;50.898;4.662;2023-07-13T02:45:47;20.30;99.90
29803;DHT22;16702;50.898;4.662;2023-07-13T02:48:18;20.30;99.90
29803;DHT22;16702;50.898;4.662;2023-07-13T02:50:48;20.20;99.90
29803;DHT22;16702;50.898;4.662;2023-07-13T02:53:22;20.10;99.90
29803;DHT22;16702;50.898;4.662;2023-07-13T02:55:53;20.10;99.90
29803;DHT22;16702;50.898;4.662;2023-07-13T02:58:24;20.20;99.90
29803;DHT22;16702;50.898;4.662;2023-07-13T03:00:56;20.20;99.90
29803;DHT22;16702;50.898;4.662;2023-07-13T03:03:27;20.20;99.90
29803;DHT22;16702;50.898;4.662;2023-07-13T03:05:59;20.10;99.90
29803;DHT22;16702;50.898;4.662;2023-07-13T03:08:39;20.10;99.90
29803;DHT22;16702;50.898;4.662;2023-07-13T03:11:11;20.10;99.90
29803;DHT22;16702;50.898;4.662;2023-07-13T03:13:44;20.10;99.90
29803;DHT22;16702;50.898;4.662;2023-07-13T03:16:16;20.10;99.90
29803;DHT22;16702;50.898;4.662;2023-07-13T03:18:49;20.00;99.90
29803;DHT22;16702;50.898;4.662;2023-07-13T03:21:23;20.10;99.90
29803;DHT22;16702;50.898;4.662;2023-07-13T03:23:56;19.90;99.90
29803;DHT22;16702;50.898;4.662;2023-07-13T03:26:28;20.10;99.90
29803;DHT22;16702;50.898;4.662;2023-07-13T03:28:59;20.10;99.90
29803;DHT22;16702;50.898;4.662;2023-07-13T03:31:32;20.00;99.90
29803;DHT22;16702;50.898;4.662;2023-07-13T03:34:03;20.00;99.90
29803;DHT22;16702;50.898;4.662;2023-07-13T03:36:35;20.00;99.90
29803;DHT22;16702;50.898;4.662;2023-07-13T03:39:11;20.00;99.90
29803;DHT22;16702;50.898;4.662;2023-07-13T03:41:48;20.00;99.90
29803;DHT22;16702;50.898;4.662;2023-07-13T03:44:20;19.90;99.90
29803;DHT22;16702;50.898;4.662;2023-07-13T03:46:54;19.80;99.90
29803;DHT22;16702;50.898;4.662;2023-07-13T03:49:25;19.80;99.90
29803;DHT22;16702;50.898;4.662;2023-07-13T03:51:55;19.80;99.90
29803;DHT22;16702;50.898;4.662;2023-07-13T03:54:28;19.70;99.90
29803;DHT22;16702;50.898;4.662;2023-07-13T03:57:01;19.70;99.90
29803;DHT22;16702;50.898;4.662;2023-07-13T03:59:35;19.70;99.90
29803;DHT22;16702;50.898;4.662;2023-07-13T04:02:08;19.80;99.90
29803;DHT22;16702;50.898;4.662;2023-07-13T04:04:39;19.80;99.90
29803;DHT22;16702;50.898;4.662;2023-07-13T04:07:10;19.70;99.90
29803;DHT22;16702;50.898;4.662;2023-07-13T04:09:43;19.70;99.90
29803;DHT22;16702;50.898;4.662;2023-07-13T04:12:14;19.70;99.90
29803;DHT22;16702;50.898;4.662;2023-07-13T04:14:44;19.60;99.90
29803;DHT22;16702;50.898;4.662;2023-07-13T04:17:15;19.60;99.90
29803;DHT22;16702;50.898;4.662;2023-07-13T04:19:45;19.60;99.90
29803;DHT22;16702;50.898;4.662;2023-07-13T04:22:16;19.70;99.90
29803;DHT22;16702;50.898;4.662;2023-07-13T04:24:49;19.60;99.90
29803;DHT22;16702;50.898;4.662;2023-07-13T04:27:20;19.50;99.90
29803;DHT22;16702;50.898;4.662;2023-07-13T04:29:52;19.60;99.90
29803;DHT22;16702;50.898;4.662;2023-07-13T04:32:22;19.60;99.90
29803;DHT22;16702;50.898;4.662;2023-07-13T04:34:53;19.60;99.90
29803;DHT22;16702;50.898;4.662;2023-07-13T04:37:25;19.60;99.90
29803;DHT22;16702;50.898;4.662;2023-07-13T04:39:59;19.60;99.90
29803;DHT22;16702;50.898;4.662;2023-07-13T04:42:30;19.60;99.90
29803;DHT22;16702;50.898;4.662;2023-07-13T04:45:02;19.60;99.90
29803;DHT22;16702;50.898;4.662;2023-07-13T04:47:32;19.50;99.90
29803;DHT22;16702;50.898;4.662;2023-07-13T04:50:04;19.60;99.90
29803;DHT22;16702;50.898;4.662;2023-07-13T04:52:34;19.60;99.90
29803;DHT22;16702;50.898;4.662;2023-07-13T04:55:08;19.60;99.90
29803;DHT22;16702;50.898;4.662;2023-07-13T04:57:39;19.60;99.90
29803;DHT22;16702;50.898;4.662;2023-07-13T05:00:11;19.60;99.90
29803;DHT22;16702;50.898;4.662;2023-07-13T05:02:44;19.50;99.90
29803;DHT22;16702;50.898;4.662;2023-07-13T05:05:15;19.50;99.90
29803;DHT22;16702;50.898;4.662;2023-07-13T05:07:46;19.50;99.90
29803;DHT22;16702;50.898;4.662;2023-07-13T05:10:19;19.60;99.90
29803;DHT22;16702;50.898;4.662;2023-07-13T05:12:49;19.60;99.90
29803;DHT22;16702;50.898;4.662;2023-07-13T05:15:21;19.60;99.90
29803;DHT22;16702;50.898;4.662;2023-07-13T05:17:53;19.70;99.90
29803;DHT22;16702;50.898;4.662;2023-07-13T05:20:24;19.60;99.90
29803;DHT22;16702;50.898;4.662;2023-07-13T05:22:55;19.70;99.90
29803;DHT22;16702;50.898;4.662;2023-07-13T05:25:28;19.60;99.90
29803;DHT22;16702;50.898;4.662;2023-07-13T05:27:59;19.70;99.90
29803;DHT22;16702;50.898;4.662;2023-07-13T05:30:30;19.70;99.90
29803;DHT22;16702;50.898;4.662;2023-07-13T05:33:02;19.70;99.90
29803;DHT22;16702;50.898;4.662;2023-07-13T05:35:35;19.70;99.90
29803;DHT22;16702;50.898;4.662;2023-07-13T05:38:05;19.70;99.90
29803;DHT22;16702;50.898;4.662;2023-07-13T05:40:38;19.70;99.90
29803;DHT22;16702;50.898;4.662;2023-07-13T05:43:09;19.70;99.90
29803;DHT22;16702;50.898;4.662;2023-07-13T05:45:40;19.80;99.90
29803;DHT22;16702;50.898;4.662;2023-07-13T05:48:10;19.80;99.90
29803;DHT22;16702;50.898;4.662;2023-07-13T05:50:41;19.80;99.90
29803;DHT22;16702;50.898;4.662;2023-07-13T05:53:12;19.80;99.90
29803;DHT22;16702;50.898;4.662;2023-07-13T05:55:46;19.80;99.90
29803;DHT22;16702;50.898;4.662;2023-07-13T05:58:18;19.90;99.90
29803;DHT22;16702;50.898;4.662;2023-07-13T06:00:58;19.90;99.90
29803;DHT22;16702;50.898;4.662;2023-07-13T06:03:29;19.80;99.90
29803;DHT22;16702;50.898;4.662;2023-07-13T06:06:00;19.90;99.90
29803;DHT22;16702;50.898;4.662;2023-07-13T06:08:31;19.90;99.90
29803;DHT22;16702;50.898;4.662;2023-07-13T06:11:06;19.80;99.90
29803;DHT22;16702;50.898;4.662;2023-07-13T06:13:37;19.90;99.90
29803;DHT22;16702;50.898;4.662;2023-07-13T06:16:08;19.90;99.90
29803;DHT22;16702;50.898;4.662;2023-07-13T06:18:40;19.80;99.90
29803;DHT22;16702;50.898;4.662;2023-07-13T06:21:13;19.90;99.90
29803;DHT22;16702;50.898;4.662;2023-07-13T06:23:44;19.80;99.90
29803;DHT22;16702;50.898;4.662;2023-07-13T06:26:19;19.80;99.90
29803;DHT22;16702;50.898;4.662;2023-07-13T06:28:50;19.80;99.90
29803;DHT22;16702;50.898;4.662;2023-07-13T06:31:20;19.90;99.90
29803;DHT22;16702;50.898;4.662;2023-07-13T06:33:51;19.90;99.90
29803;DHT22;16702;50.898;4.662;2023-07-13T06:36:22;19.80;99.90
29803;DHT22;16702;50.898;4.662;2023-07-13T06:38:52;19.90;99.90
29803;DHT22;16702;50.898;4.662;2023-07-13T06:41:25;19.90;99.90
29803;DHT22;16702;50.898;4.662;2023-07-13T06:43:58;19.90;99.90
29803;DHT22;16702;50.898;4.662;2023-07-13T06:46:29;19.80;99.90
29803;DHT22;16702;50.898;4.662;2023-07-13T06:48:59;19.90;99.90
29803;DHT22;16702;50.898;4.662;2023-07-13T06:51:30;20.00;99.90
29803;DHT22;16702;50.898;4.662;2023-07-13T06:54:01;20.00;99.90
29803;DHT22;16702;50.898;4.662;2023-07-13T06:56:34;20.00;99.90
29803;DHT22;16702;50.898;4.662;2023-07-13T06:59:05;20.00;99.90
29803;DHT22;16702;50.898;4.662;2023-07-13T07:01:36;20.00;99.90
29803;DHT22;16702;50.898;4.662;2023-07-13T07:04:08;20.10;99.90
29803;DHT22;16702;50.898;4.662;2023-07-13T07:06:38;20.10;99.90
29803;DHT22;16702;50.898;4.662;2023-07-13T07:09:09;20.10;99.90
29803;DHT22;16702;50.898;4.662;2023-07-13T07:11:42;20.20;99.90
29803;DHT22;16702;50.898;4.662;2023-07-13T07:14:28;20.20;99.90
29803;DHT22;16702;50.898;4.662;2023-07-13T07:16:59;20.30;99.90
29803;DHT22;16702;50.898;4.662;2023-07-13T07:19:30;20.30;99.90
29803;DHT22;16702;50.898;4.662;2023-07-13T07:22:02;20.40;99.90
29803;DHT22;16702;50.898;4.662;2023-07-13T07:24:32;20.40;99.90
29803;DHT22;16702;50.898;4.662;2023-07-13T07:27:06;20.50;99.90
29803;DHT22;16702;50.898;4.662;2023-07-13T07:29:40;20.40;99.90
29803;DHT22;16702;50.898;4.662;2023-07-13T07:32:18;20.50;99.90
29803;DHT22;16702;50.898;4.662;2023-07-13T07:34:52;20.50;99.90
29803;DHT22;16702;50.898;4.662;2023-07-13T07:37:22;20.30;99.90
29803;DHT22;16702;50.898;4.662;2023-07-13T07:40:13;20.30;99.90
29803;DHT22;16702;50.898;4.662;2023-07-13T07:42:49;20.50;99.90
29803;DHT22;16702;50.898;4.662;2023-07-13T07:45:21;20.60;99.90
29803;DHT22;16702;50.898;4.662;2023-07-13T07:47:51;20.50;99.90
29803;DHT22;16702;50.898;4.662;2023-07-13T07:50:22;20.40;99.90
29803;DHT22;16702;50.898;4.662;2023-07-13T07:52:53;20.50;99.90
29803;DHT22;16702;50.898;4.662;2023-07-13T07:55:24;20.60;99.90
29803;DHT22;16702;50.898;4.662;2023-07-13T07:58:01;20.70;99.90
29803;DHT22;16702;50.898;4.662;2023-07-13T08:00:52;20.60;99.90
29803;DHT22;16702;50.898;4.662;2023-07-13T08:03:25;20.70;99.90
29803;DHT22;16702;50.898;4.662;2023-07-13T08:06:16;20.70;99.90
29803;DHT22;16702;50.898;4.662;2023-07-13T08:08:50;20.70;99.90
29803;DHT22;16702;50.898;4.662;2023-07-13T08:11:21;20.70;99.90
29803;DHT22;16702;50.898;4.662;2023-07-13T08:13:57;20.80;99.90
29803;DHT22;16702;50.898;4.662;2023-07-13T08:16:28;20.90;99.90
29803;DHT22;16702;50.898;4.662;2023-07-13T08:19:00;20.90;99.90
29803;DHT22;16702;50.898;4.662;2023-07-13T08:21:31;20.70;99.90
29803;DHT22;16702;50.898;4.662;2023-07-13T08:24:03;20.80;99.90
29803;DHT22;16702;50.898;4.662;2023-07-13T08:26:34;20.90;99.90
29803;DHT22;16702;50.898;4.662;2023-07-13T08:29:07;20.80;99.90
29803;DHT22;16702;50.898;4.662;2023-07-13T08:31:37;21.00;99.90
29803;DHT22;16702;50.898;4.662;2023-07-13T08:34:08;21.10;99.90
29803;DHT22;16702;50.898;4.662;2023-07-13T08:36:42;21.10;99.90
29803;DHT22;16702;50.898;4.662;2023-07-13T08:39:12;21.10;99.90
29803;DHT22;16702;50.898;4.662;2023-07-13T08:41:44;21.20;99.90
29803;DHT22;16702;50.898;4.662;2023-07-13T08:44:25;21.20;99.90
29803;DHT22;16702;50.898;4.662;2023-07-13T08:46:58;21.30;99.90
29803;DHT22;16702;50.898;4.662;2023-07-13T08:49:29;21.30;99.90
29803;DHT22;16702;50.898;4.662;2023-07-13T08:52:03;21.30;99.90
29803;DHT22;16702;50.898;4.662;2023-07-13T08:54:38;21.30;99.90
29803;DHT22;16702;50.898;4.662;2023-07-13T08:57:13;21.50;99.90
29803;DHT22;16702;50.898;4.662;2023-07-13T08:59:47;21.40;99.90
29803;DHT22;16702;50.898;4.662;2023-07-13T09:02:25;21.40;99.90
29803;DHT22;16702;50.898;4.662;2023-07-13T09:05:00;21.50;99.90
29803;DHT22;16702;50.898;4.662;2023-07-13T09:07:43;21.50;99.90
29803;DHT22;16702;50.898;4.662;2023-07-13T09:10:18;21.70;99.90
29803;DHT22;16702;50.898;4.662;2023-07-13T09:13:03;21.70;99.90
29803;DHT22;16702;50.898;4.662;2023-07-13T09:15:41;21.80;99.90
29803;DHT22;16702;50.898;4.662;2023-07-13T09:18:16;21.70;99.90
29803;DHT22;16702;50.898;4.662;2023-07-13T09:20:53;21.80;99.90
29803;DHT22;16702;50.898;4.662;2023-07-13T09:23:28;21.90;99.90
29803;DHT22;16702;50.898;4.662;2023-07-13T09:26:02;22.00;99.90
29803;DHT22;16702;50.898;4.662;2023-07-13T09:28:38;22.00;99.90
29803;DHT22;16702;50.898;4.662;2023-07-13T09:31:15;22.20;99.90
29803;DHT22;16702;50.898;4.662;2023-07-13T09:33:46;22.20;99.90
29803;DHT22;16702;50.898;4.662;2023-07-13T09:36:21;22.20;99.90
29803;DHT22;16702;50.898;4.662;2023-07-13T09:38:59;22.10;99.90
29803;DHT22;16702;50.898;4.662;2023-07-13T09:41:45;22.20;99.90
29803;DHT22;16702;50.898;4.662;2023-07-13T09:44:18;22.30;99.90
29803;DHT22;16702;50.898;4.662;2023-07-13T09:47:01;22.20;99.90
29803;DHT22;16702;50.898;4.662;2023-07-13T09:49:35;22.40;99.90
29803;DHT22;16702;50.898;4.662;2023-07-13T09:52:15;22.40;99.90
29803;DHT22;16702;50.898;4.662;2023-07-13T09:54:48;22.50;99.90
29803;DHT22;16702;50.898;4.662;2023-07-13T09:57:22;22.50;99.90
29803;DHT22;16702;50.898;4.662;2023-07-13T10:00:21;22.40;99.90
29803;DHT22;16702;50.898;4.662;2023-07-13T10:03:16;22.30;99.90
29803;DHT22;16702;50.898;4.662;2023-07-13T10:05:50;22.60;99.90
29803;DHT22;16702;50.898;4.662;2023-07-13T10:08:24;22.60;99.90
29803;DHT22;16702;50.898;4.662;2023-07-13T10:10:59;22.50;99.90
29803;DHT22;16702;50.898;4.662;2023-07-13T10:13:36;22.60;99.90
29803;DHT22;16702;50.898;4.662;2023-07-13T10:16:07;22.80;99.90
29803;DHT22;16702;50.898;4.662;2023-07-13T10:18:44;22.80;99.90
29803;DHT22;16702;50.898;4.662;2023-07-13T10:21:18;23.00;99.90
29803;DHT22;16702;50.898;4.662;2023-07-13T10:23:55;23.10;99.90
29803;DHT22;16702;50.898;4.662;2023-07-13T10:26:31;23.10;99.90
29803;DHT22;16702;50.898;4.662;2023-07-13T10:29:06;23.10;99.90
29803;DHT22;16702;50.898;4.662;2023-07-13T10:31:40;23.30;99.90
29803;DHT22;16702;50.898;4.662;2023-07-13T10:34:14;23.20;99.90
29803;DHT22;16702;50.898;4.662;2023-07-13T10:36:47;23.10;99.90
29803;DHT22;16702;50.898;4.662;2023-07-13T10:39:20;23.20;99.90
29803;DHT22;16702;50.898;4.662;2023-07-13T10:41:55;23.30;99.90
29803;DHT22;16702;50.898;4.662;2023-07-13T10:44:28;23.30;99.90
29803;DHT22;16702;50.898;4.662;2023-07-13T10:47:02;23.20;99.90
29803;DHT22;16702;50.898;4.662;2023-07-13T10:49:37;23.30;99.90
29803;DHT22;16702;50.898;4.662;2023-07-13T10:52:40;23.40;99.90
29803;DHT22;16702;50.898;4.662;2023-07-13T10:55:33;23.50;99.90
29803;DHT22;16702;50.898;4.662;2023-07-13T10:58:20;23.30;99.90
29803;DHT22;16702;50.898;4.662;2023-07-13T11:00:56;23.40;99.90
29803;DHT22;16702;50.898;4.662;2023-07-13T11:03:28;23.50;99.90
29803;DHT22;16702;50.898;4.662;2023-07-13T11:06:15;23.40;99.90
29803;DHT22;16702;50.898;4.662;2023-07-13T11:08:54;23.40;99.90
29803;DHT22;16702;50.898;4.662;2023-07-13T11:11:36;23.20;99.90
29803;DHT22;16702;50.898;4.662;2023-07-13T11:14:27;23.40;99.90
29803;DHT22;16702;50.898;4.662;2023-07-13T11:17:24;23.30;99.90
29803;DHT22;16702;50.898;4.662;2023-07-13T11:20:20;23.20;99.90
29803;DHT22;16702;50.898;4.662;2023-07-13T11:23:07;23.10;99.90
29803;DHT22;16702;50.898;4.662;2023-07-13T11:25:38;23.10;99.90
29803;DHT22;16702;50.898;4.662;2023-07-13T11:28:17;23.10;99.90
29803;DHT22;16702;50.898;4.662;2023-07-13T11:30:49;23.10;99.90
29803;DHT22;16702;50.898;4.662;2023-07-13T11:33:22;23.00;99.90
29803;DHT22;16702;50.898;4.662;2023-07-13T11:35:59;23.00;99.90
29803;DHT22;16702;50.898;4.662;2023-07-13T11:38:37;23.50;99.90
29803;DHT22;16702;50.898;4.662;2023-07-13T11:41:17;23.70;99.90
29803;DHT22;16702;50.898;4.662;2023-07-13T11:43:49;24.00;99.90
29803;DHT22;16702;50.898;4.662;2023-07-13T11:46:21;23.90;99.90
29803;DHT22;16702;50.898;4.662;2023-07-13T11:48:54;23.70;99.90
29803;DHT22;16702;50.898;4.662;2023-07-13T11:51:28;23.80;99.90
29803;DHT22;16702;50.898;4.662;2023-07-13T11:54:05;24.10;99.90
29803;DHT22;16702;50.898;4.662;2023-07-13T11:56:36;24.20;99.90
29803;DHT22;16702;50.898;4.662;2023-07-13T11:59:10;24.30;99.90
29803;DHT22;16702;50.898;4.662;2023-07-13T12:01:44;24.20;99.90
29803;DHT22;16702;50.898;4.662;2023-07-13T12:04:21;23.90;99.90
29803;DHT22;16702;50.898;4.662;2023-07-13T12:06:57;23.90;99.90
29803;DHT22;16702;50.898;4.662;2023-07-13T12:09:33;23.70;99.90
29803;DHT22;16702;50.898;4.662;2023-07-13T12:12:08;23.50;99.90
29803;DHT22;16702;50.898;4.662;2023-07-13T12:14:40;23.40;99.90
29803;DHT22;16702;50.898;4.662;2023-07-13T12:17:15;23.40;99.90
29803;DHT22;16702;50.898;4.662;2023-07-13T12:19:46;23.50;99.90
29803;DHT22;16702;50.898;4.662;2023-07-13T12:22:18;23.40;99.90
29803;DHT22;16702;50.898;4.662;2023-07-13T12:24:53;23.50;99.90
29803;DHT22;16702;50.898;4.662;2023-07-13T12:27:26;23.50;99.90
29803;DHT22;16702;50.898;4.662;2023-07-13T12:30:00;23.60;99.90
29803;DHT22;16702;50.898;4.662;2023-07-13T12:32:32;23.50;99.90
29803;DHT22;16702;50.898;4.662;2023-07-13T12:35:14;23.30;99.90
29803;DHT22;16702;50.898;4.662;2023-07-13T12:37:50;23.30;99.90
29803;DHT22;16702;50.898;4.662;2023-07-13T12:40:27;23.10;99.90
29803;DHT22;16702;50.898;4.662;2023-07-13T12:43:03;23.20;99.90
29803;DHT22;16702;50.898;4.662;2023-07-13T12:45:34;23.20;99.90
29803;DHT22;16702;50.898;4.662;2023-07-13T12:48:12;22.90;99.90
29803;DHT22;16702;50.898;4.662;2023-07-13T12:50:53;22.90;99.90
29803;DHT22;16702;50.898;4.662;2023-07-13T12:53:30;22.40;99.90
29803;DHT22;16702;50.898;4.662;2023-07-13T12:56:04;22.20;99.90
29803;DHT22;16702;50.898;4.662;2023-07-13T12:58:37;22.40;99.90
29803;DHT22;16702;50.898;4.662;2023-07-13T13:01:13;22.50;99.90
29803;DHT22;16702;50.898;4.662;2023-07-13T13:03:46;22.40;99.90
29803;DHT22;16702;50.898;4.662;2023-07-13T13:06:22;22.40;99.90
29803;DHT22;16702;50.898;4.662;2023-07-13T13:08:55;22.10;99.90
29803;DHT22;16702;50.898;4.662;2023-07-13T13:11:30;22.10;99.90
29803;DHT22;16702;50.898;4.662;2023-07-13T13:14:02;22.00;99.90
29803;DHT22;16702;50.898;4.662;2023-07-13T13:16:34;22.00;99.90
29803;DHT22;16702;50.898;4.662;2023-07-13T13:19:13;22.10;99.90
29803;DHT22;16702;50.898;4.662;2023-07-13T13:21:45;22.10;99.90
29803;DHT22;16702;50.898;4.662;2023-07-13T13:24:19;22.10;99.90
29803;DHT22;16702;50.898;4.662;2023-07-13T13:26:53;22.20;99.90
29803;DHT22;16702;50.898;4.662;2023-07-13T13:29:25;22.20;99.90
29803;DHT22;16702;50.898;4.662;2023-07-13T13:31:55;22.20;99.90
29803;DHT22;16702;50.898;4.662;2023-07-13T13:34:27;22.20;99.90
29803;DHT22;16702;50.898;4.662;2023-07-13T13:36:57;22.20;99.90
29803;DHT22;16702;50.898;4.662;2023-07-13T13:39:33;22.30;99.90
29803;DHT22;16702;50.898;4.662;2023-07-13T13:42:09;22.30;99.90
29803;DHT22;16702;50.898;4.662;2023-07-13T13:44:40;22.40;99.90
29803;DHT22;16702;50.898;4.662;2023-07-13T13:47:25;22.70;99.90
29803;DHT22;16702;50.898;4.662;2023-07-13T13:49:58;22.80;99.90
29803;DHT22;16702;50.898;4.662;2023-07-13T13:52:29;22.60;99.90
29803;DHT22;16702;50.898;4.662;2023-07-13T13:54:59;22.60;99.90
29803;DHT22;16702;50.898;4.662;2023-07-13T13:57:33;22.70;99.90
29803;DHT22;16702;50.898;4.662;2023-07-13T14:00:04;22.70;99.90
29803;DHT22;16702;50.898;4.662;2023-07-13T14:02:36;22.70;99.90
29803;DHT22;16702;50.898;4.662;2023-07-13T14:05:11;22.70;99.90
29803;DHT22;16702;50.898;4.662;2023-07-13T14:07:42;22.90;99.90
29803;DHT22;16702;50.898;4.662;2023-07-13T14:10:17;23.00;99.90
29803;DHT22;16702;50.898;4.662;2023-07-13T14:12:53;23.00;99.90
29803;DHT22;16702;50.898;4.662;2023-07-13T14:15:26;23.10;99.90
29803;DHT22;16702;50.898;4.662;2023-07-13T14:17:58;23.20;99.90
29803;DHT22;16702;50.898;4.662;2023-07-13T14:20:28;23.40;99.90
29803;DHT22;16702;50.898;4.662;2023-07-13T14:22:59;23.50;99.90
29803;DHT22;16702;50.898;4.662;2023-07-13T14:25:30;23.50;99.90
29803;DHT22;16702;50.898;4.662;2023-07-13T14:28:15;23.50;99.90
29803;DHT22;16702;50.898;4.662;2023-07-13T14:30:48;23.70;99.90
29803;DHT22;16702;50.898;4.662;2023-07-13T14:33:19;24.00;99.90
29803;DHT22;16702;50.898;4.662;2023-07-13T14:35:50;24.20;99.90
29803;DHT22;16702;50.898;4.662;2023-07-13T14:38:21;24.30;99.90
29803;DHT22;16702;50.898;4.662;2023-07-13T14:40:52;24.20;99.90
29803;DHT22;16702;50.898;4.662;2023-07-13T14:43:25;24.10;99.90
29803;DHT22;16702;50.898;4.662;2023-07-13T14:45:56;24.30;99.90
29803;DHT22;16702;50.898;4.662;2023-07-13T14:48:27;24.30;99.90
29803;DHT22;16702;50.898;4.662;2023-07-13T14:50:58;24.70;99.90
29803;DHT22;16702;50.898;4.662;2023-07-13T14:53:29;24.80;99.90
29803;DHT22;16702;50.898;4.662;2023-07-13T14:56:00;24.60;99.90
29803;DHT22;16702;50.898;4.662;2023-07-13T14:58:33;24.30;99.90
29803;DHT22;16702;50.898;4.662;2023-07-13T15:01:04;24.10;99.90
29803;DHT22;16702;50.898;4.662;2023-07-13T15:03:34;24.00;99.90
29803;DHT22;16702;50.898;4.662;2023-07-13T15:06:09;24.00;99.90
29803;DHT22;16702;50.898;4.662;2023-07-13T15:08:40;24.00;99.90
29803;DHT22;16702;50.898;4.662;2023-07-13T15:11:13;23.90;99.90
29803;DHT22;16702;50.898;4.662;2023-07-13T15:13:46;24.00;99.90
29803;DHT22;16702;50.898;4.662;2023-07-13T15:16:21;24.00;99.90
29803;DHT22;16702;50.898;4.662;2023-07-13T15:18:52;24.10;99.90
29803;DHT22;16702;50.898;4.662;2023-07-13T15:21:24;24.60;99.90
29803;DHT22;16702;50.898;4.662;2023-07-13T15:23:58;25.00;99.90
29803;DHT22;16702;50.898;4.662;2023-07-13T15:26:30;24.80;99.90
29803;DHT22;16702;50.898;4.662;2023-07-13T15:29:04;24.70;99.90
29803;DHT22;16702;50.898;4.662;2023-07-13T15:31:35;24.90;99.90
29803;DHT22;16702;50.898;4.662;2023-07-13T15:34:11;25.10;99.90
29803;DHT22;16702;50.898;4.662;2023-07-13T15:36:42;25.40;99.90
29803;DHT22;16702;50.898;4.662;2023-07-13T15:39:14;25.30;99.90
29803;DHT22;16702;50.898;4.662;2023-07-13T15:41:46;25.50;99.90
29803;DHT22;16702;50.898;4.662;2023-07-13T15:44:29;25.70;99.90
29803;DHT22;16702;50.898;4.662;2023-07-13T15:47:00;25.80;99.90
29803;DHT22;16702;50.898;4.662;2023-07-13T15:49:31;25.90;99.90
29803;DHT22;16702;50.898;4.662;2023-07-13T15:52:02;25.90;99.90
29803;DHT22;16702;50.898;4.662;2023-07-13T15:54:36;25.90;99.90
29803;DHT22;16702;50.898;4.662;2023-07-13T15:57:10;26.10;99.90
29803;DHT22;16702;50.898;4.662;2023-07-13T15:59:44;26.30;99.90
29803;DHT22;16702;50.898;4.662;2023-07-13T16:02:18;26.30;99.90
29803;DHT22;16702;50.898;4.662;2023-07-13T16:04:49;26.50;99.90
29803;DHT22;16702;50.898;4.662;2023-07-13T16:07:19;26.60;99.90
29803;DHT22;16702;50.898;4.662;2023-07-13T16:09:50;26.60;99.90
29803;DHT22;16702;50.898;4.662;2023-07-13T16:12:20;26.60;99.90